createdAt,value
2022-11-16T00:07:37.425Z,21.665
2022-11-16T00:22:39.337Z,21.312
2022-11-16T00:37:41.225Z,20.872
2022-11-16T00:52:43.083Z,20.473
2022-11-16T01:07:45.065Z,20.344
2022-11-16T01:22:46.916Z,19.73
2022-11-16T01:37:48.788Z,20.011
2022-11-16T01:52:50.661Z,20.264
2022-11-16T02:07:52.514Z,19.602
2022-11-16T02:22:54.529Z,19.308
2022-11-16T02:37:56.385Z,19.887
2022-11-16T02:52:58.204Z,19.229
2022-11-16T03:08:00.066Z,19.823
2022-11-16T03:23:01.960Z,19.644
2022-11-16T03:38:03.837Z,19.408
2022-11-16T03:53:05.720Z,19.623
2022-11-16T04:08:07.576Z,19.824
2022-11-16T04:23:09.426Z,19.283
2022-11-16T04:38:11.295Z,19.856
2022-11-16T04:53:13.157Z,19.022
2022-11-16T05:08:15.074Z,18.727
2022-11-16T05:23:17.206Z,19.015
2022-11-16T05:38:20.536Z,19.352
2022-11-16T05:53:23.112Z,19.167
2022-11-16T06:08:25.650Z,20.022
2022-11-16T06:23:28.200Z,19.114
2022-11-16T06:38:30.892Z,19.677
2022-11-16T06:53:34.767Z,18.444
2022-11-16T07:08:39.312Z,19.467
2022-11-16T07:23:41.770Z,19.873
2022-11-16T07:38:44.152Z,19.099
2022-11-16T07:53:46.612Z,18.211
2022-11-16T08:08:51.314Z,18.604
2022-11-16T08:23:58.744Z,19.198
2022-11-16T08:39:00.880Z,19.177
2022-11-16T08:54:02.758Z,20.189
2022-11-16T09:09:04.607Z,19.844
2022-11-16T09:24:06.442Z,20.639
2022-11-16T09:39:31.626Z,20.583
2022-11-16T09:54:34.001Z,20.94
2022-11-16T10:09:35.854Z,21.238
2022-11-16T10:24:37.643Z,22.01
2022-11-16T10:39:39.651Z,22.315
2022-11-16T10:54:44.258Z,21.814
2022-11-16T11:09:46.499Z,21.73
2022-11-16T11:24:48.355Z,21.348
2022-11-16T11:39:50.241Z,21.845
2022-11-16T11:54:52.373Z,21.904
2022-11-16T12:09:54.202Z,21.825
2022-11-16T12:24:56.003Z,22.51
2022-11-16T12:39:57.794Z,22.261
2022-11-16T12:55:24.808Z,22.541
2022-11-16T13:10:28.068Z,22.374
2022-11-16T13:25:30.027Z,23.11
2022-11-16T13:40:31.858Z,22.51
2022-11-16T13:55:33.741Z,22.98
2022-11-16T14:10:35.636Z,22.678
2022-11-16T14:25:37.492Z,23.099
2022-11-16T14:40:39.317Z,24.932
2022-11-16T14:55:41.151Z,25.215
2022-11-16T15:10:43.008Z,25.116
2022-11-16T15:25:44.850Z,24.018
2022-11-16T15:40:46.747Z,24.483
2022-11-16T15:55:48.760Z,23.885
2022-11-16T16:10:50.647Z,24.142
2022-11-16T16:25:52.509Z,23.666
2022-11-16T16:40:54.374Z,24.19
2022-11-16T16:55:56.975Z,23.754
2022-11-16T17:10:59.971Z,25.345
2022-11-16T17:26:03.254Z,24.351
2022-11-16T17:41:05.812Z,22.649
2022-11-16T17:56:08.762Z,23.571
2022-11-16T18:11:10.698Z,22.565
2022-11-16T18:26:12.596Z,23.047
2022-11-16T18:41:14.533Z,21.937
2022-11-16T18:56:16.400Z,24.194
2022-11-16T19:11:18.294Z,22.35
2022-11-16T19:26:20.272Z,23.53
2022-11-16T19:41:22.077Z,23.057
2022-11-16T19:56:23.900Z,22.662
2022-11-16T20:11:25.722Z,23.183
2022-11-16T20:26:27.558Z,22.603
2022-11-16T20:41:29.457Z,23.773
2022-11-16T20:56:31.295Z,22.395
2022-11-16T21:11:33.153Z,22.708
2022-11-16T21:26:35.056Z,22.106
2022-11-16T21:41:36.915Z,24.841
2022-11-16T21:56:38.790Z,25.044
2022-11-16T22:11:40.694Z,24.252
2022-11-16T22:26:42.574Z,22.229
2022-11-16T22:41:44.358Z,21.999
2022-11-16T22:56:46.204Z,21.92
2022-11-16T23:11:48.078Z,21.327
2022-11-16T23:26:49.918Z,20.625
2022-11-16T23:41:51.769Z,21.269
2022-11-16T23:56:53.586Z,20.839
